sensor_id;sensor_type;location;lat;lon;timestamp;P1;durP1;ratioP1;P2;durP2;ratioP2
37655;SDS011;23498;50.958;3.124;2022-07-23T00:01:37;14.23;;;9.80;;
37655;SDS011;23498;50.958;3.124;2022-07-23T00:04:03;15.50;;;10.60;;
37655;SDS011;23498;50.958;3.124;2022-07-23T00:06:29;15.65;;;9.73;;
37655;SDS011;23498;50.958;3.124;2022-07-23T00:08:55;13.60;;;9.63;;
37655;SDS011;23498;50.958;3.124;2022-07-23T00:11:21;13.18;;;9.38;;
37655;SDS011;23498;50.958;3.124;2022-07-23T00:13:47;12.02;;;9.38;;
37655;SDS011;23498;50.958;3.124;2022-07-23T00:16:14;14.23;;;10.98;;
37655;SDS011;23498;50.958;3.124;2022-07-23T00:18:40;13.50;;;9.32;;
37655;SDS011;23498;50.958;3.124;2022-07-23T00:21:06;14.88;;;10.23;;
37655;SDS011;23498;50.958;3.124;2022-07-23T00:23:32;13.77;;;9.30;;
37655;SDS011;23498;50.958;3.124;2022-07-23T00:25:58;13.48;;;9.88;;
37655;SDS011;23498;50.958;3.124;2022-07-23T00:28:24;13.25;;;10.23;;
37655;SDS011;23498;50.958;3.124;2022-07-23T00:30:50;18.75;;;10.55;;
37655;SDS011;23498;50.958;3.124;2022-07-23T00:33:17;13.52;;;10.38;;
37655;SDS011;23498;50.958;3.124;2022-07-23T00:35:43;16.00;;;10.65;;
37655;SDS011;23498;50.958;3.124;2022-07-23T00:38:10;15.30;;;10.70;;
37655;SDS011;23498;50.958;3.124;2022-07-23T00:40:38;15.38;;;10.05;;
37655;SDS011;23498;50.958;3.124;2022-07-23T00:43:04;15.93;;;10.32;;
37655;SDS011;23498;50.958;3.124;2022-07-23T00:45:30;15.32;;;9.73;;
37655;SDS011;23498;50.958;3.124;2022-07-23T00:47:57;14.77;;;9.80;;
37655;SDS011;23498;50.958;3.124;2022-07-23T00:50:23;14.90;;;10.82;;
37655;SDS011;23498;50.958;3.124;2022-07-23T00:52:49;13.35;;;9.75;;
37655;SDS011;23498;50.958;3.124;2022-07-23T00:55:15;13.10;;;9.68;;
37655;SDS011;23498;50.958;3.124;2022-07-23T00:57:41;14.70;;;10.18;;
37655;SDS011;23498;50.958;3.124;2022-07-23T01:00:09;15.75;;;10.25;;
37655;SDS011;23498;50.958;3.124;2022-07-23T01:02:36;17.08;;;11.13;;
37655;SDS011;23498;50.958;3.124;2022-07-23T01:05:02;16.52;;;10.63;;
37655;SDS011;23498;50.958;3.124;2022-07-23T01:07:28;15.75;;;10.48;;
37655;SDS011;23498;50.958;3.124;2022-07-23T01:09:54;14.23;;;10.23;;
37655;SDS011;23498;50.958;3.124;2022-07-23T01:12:21;18.10;;;10.50;;
37655;SDS011;23498;50.958;3.124;2022-07-23T01:14:59;16.85;;;11.15;;
37655;SDS011;23498;50.958;3.124;2022-07-23T01:17:25;14.48;;;10.25;;
37655;SDS011;23498;50.958;3.124;2022-07-23T01:19:52;16.58;;;10.48;;
37655;SDS011;23498;50.958;3.124;2022-07-23T01:22:18;13.45;;;9.80;;
37655;SDS011;23498;50.958;3.124;2022-07-23T01:24:45;15.45;;;10.60;;
37655;SDS011;23498;50.958;3.124;2022-07-23T01:27:11;15.32;;;10.82;;
37655;SDS011;23498;50.958;3.124;2022-07-23T01:29:37;16.33;;;10.63;;
37655;SDS011;23498;50.958;3.124;2022-07-23T01:32:04;12.98;;;9.45;;
37655;SDS011;23498;50.958;3.124;2022-07-23T01:34:30;15.10;;;10.57;;
37655;SDS011;23498;50.958;3.124;2022-07-23T01:36:56;14.38;;;10.35;;
37655;SDS011;23498;50.958;3.124;2022-07-23T01:39:22;16.73;;;10.93;;
37655;SDS011;23498;50.958;3.124;2022-07-23T01:41:48;16.27;;;12.27;;
37655;SDS011;23498;50.958;3.124;2022-07-23T01:44:14;20.80;;;11.65;;
37655;SDS011;23498;50.958;3.124;2022-07-23T01:46:40;16.27;;;11.35;;
37655;SDS011;23498;50.958;3.124;2022-07-23T01:49:06;15.32;;;10.95;;
37655;SDS011;23498;50.958;3.124;2022-07-23T01:51:32;18.67;;;11.32;;
37655;SDS011;23498;50.958;3.124;2022-07-23T01:53:58;17.48;;;11.05;;
37655;SDS011;23498;50.958;3.124;2022-07-23T01:56:24;15.13;;;11.15;;
37655;SDS011;23498;50.958;3.124;2022-07-23T01:58:50;15.32;;;9.60;;
37655;SDS011;23498;50.958;3.124;2022-07-23T02:01:16;15.98;;;10.85;;
37655;SDS011;23498;50.958;3.124;2022-07-23T02:03:43;15.52;;;11.02;;
37655;SDS011;23498;50.958;3.124;2022-07-23T02:06:09;17.33;;;12.50;;
37655;SDS011;23498;50.958;3.124;2022-07-23T02:08:35;15.63;;;11.73;;
37655;SDS011;23498;50.958;3.124;2022-07-23T02:11:01;19.00;;;12.70;;
37655;SDS011;23498;50.958;3.124;2022-07-23T02:13:27;16.60;;;11.50;;
37655;SDS011;23498;50.958;3.124;2022-07-23T02:15:54;17.98;;;13.13;;
37655;SDS011;23498;50.958;3.124;2022-07-23T02:18:20;19.08;;;12.55;;
37655;SDS011;23498;50.958;3.124;2022-07-23T02:20:46;20.23;;;12.95;;
37655;SDS011;23498;50.958;3.124;2022-07-23T02:23:12;18.95;;;12.65;;
37655;SDS011;23498;50.958;3.124;2022-07-23T02:25:38;16.98;;;10.70;;
37655;SDS011;23498;50.958;3.124;2022-07-23T02:28:04;18.20;;;13.13;;
37655;SDS011;23498;50.958;3.124;2022-07-23T02:30:30;17.15;;;12.43;;
37655;SDS011;23498;50.958;3.124;2022-07-23T02:32:56;21.88;;;13.48;;
37655;SDS011;23498;50.958;3.124;2022-07-23T02:35:22;18.70;;;12.20;;
37655;SDS011;23498;50.958;3.124;2022-07-23T02:37:48;20.50;;;12.77;;
37655;SDS011;23498;50.958;3.124;2022-07-23T02:40:15;20.10;;;12.52;;
37655;SDS011;23498;50.958;3.124;2022-07-23T02:42:41;15.55;;;12.10;;
37655;SDS011;23498;50.958;3.124;2022-07-23T02:45:07;19.58;;;12.43;;
37655;SDS011;23498;50.958;3.124;2022-07-23T02:47:33;22.00;;;13.02;;
37655;SDS011;23498;50.958;3.124;2022-07-23T02:49:59;19.25;;;12.65;;
37655;SDS011;23498;50.958;3.124;2022-07-23T02:52:25;18.48;;;12.77;;
37655;SDS011;23498;50.958;3.124;2022-07-23T02:54:51;18.27;;;12.90;;
37655;SDS011;23498;50.958;3.124;2022-07-23T02:57:17;16.35;;;11.48;;
37655;SDS011;23498;50.958;3.124;2022-07-23T02:59:43;17.38;;;11.70;;
37655;SDS011;23498;50.958;3.124;2022-07-23T03:02:09;16.90;;;11.63;;
37655;SDS011;23498;50.958;3.124;2022-07-23T03:04:35;19.85;;;11.82;;
37655;SDS011;23498;50.958;3.124;2022-07-23T03:07:01;15.32;;;11.65;;
37655;SDS011;23498;50.958;3.124;2022-07-23T03:09:27;15.93;;;11.38;;
37655;SDS011;23498;50.958;3.124;2022-07-23T03:11:53;15.25;;;11.05;;
37655;SDS011;23498;50.958;3.124;2022-07-23T03:14:19;18.70;;;13.20;;
37655;SDS011;23498;50.958;3.124;2022-07-23T03:16:45;17.40;;;11.90;;
37655;SDS011;23498;50.958;3.124;2022-07-23T03:19:11;19.63;;;11.70;;
37655;SDS011;23498;50.958;3.124;2022-07-23T03:21:37;15.40;;;11.15;;
37655;SDS011;23498;50.958;3.124;2022-07-23T03:24:06;17.17;;;12.02;;
37655;SDS011;23498;50.958;3.124;2022-07-23T03:26:33;15.73;;;11.73;;
37655;SDS011;23498;50.958;3.124;2022-07-23T03:28:59;14.48;;;10.93;;
37655;SDS011;23498;50.958;3.124;2022-07-23T03:31:26;14.82;;;10.82;;
37655;SDS011;23498;50.958;3.124;2022-07-23T03:33:52;15.88;;;12.10;;
37655;SDS011;23498;50.958;3.124;2022-07-23T03:36:18;14.75;;;11.43;;
37655;SDS011;23498;50.958;3.124;2022-07-23T03:38:44;16.48;;;12.15;;
37655;SDS011;23498;50.958;3.124;2022-07-23T03:41:10;17.80;;;12.07;;
37655;SDS011;23498;50.958;3.124;2022-07-23T03:43:36;17.65;;;12.27;;
37655;SDS011;23498;50.958;3.124;2022-07-23T03:46:02;18.40;;;11.70;;
37655;SDS011;23498;50.958;3.124;2022-07-23T03:48:28;18.67;;;13.15;;
37655;SDS011;23498;50.958;3.124;2022-07-23T03:50:54;17.65;;;12.70;;
37655;SDS011;23498;50.958;3.124;2022-07-23T03:53:20;17.00;;;12.70;;
37655;SDS011;23498;50.958;3.124;2022-07-23T03:55:46;19.45;;;12.40;;
37655;SDS011;23498;50.958;3.124;2022-07-23T03:58:12;18.00;;;13.15;;
37655;SDS011;23498;50.958;3.124;2022-07-23T04:00:38;19.05;;;13.77;;
37655;SDS011;23498;50.958;3.124;2022-07-23T04:03:04;18.25;;;13.27;;
37655;SDS011;23498;50.958;3.124;2022-07-23T04:05:30;17.90;;;13.20;;
37655;SDS011;23498;50.958;3.124;2022-07-23T04:07:56;17.77;;;13.27;;
37655;SDS011;23498;50.958;3.124;2022-07-23T04:10:22;21.55;;;14.18;;
37655;SDS011;23498;50.958;3.124;2022-07-23T04:12:48;21.02;;;14.77;;
37655;SDS011;23498;50.958;3.124;2022-07-23T04:15:14;20.55;;;14.48;;
37655;SDS011;23498;50.958;3.124;2022-07-23T04:17:40;24.05;;;15.25;;
37655;SDS011;23498;50.958;3.124;2022-07-23T04:20:06;23.55;;;16.05;;
37655;SDS011;23498;50.958;3.124;2022-07-23T04:22:32;22.45;;;15.40;;
37655;SDS011;23498;50.958;3.124;2022-07-23T04:24:58;21.85;;;14.65;;
37655;SDS011;23498;50.958;3.124;2022-07-23T04:27:24;22.25;;;15.02;;
37655;SDS011;23498;50.958;3.124;2022-07-23T04:29:50;20.80;;;15.88;;
37655;SDS011;23498;50.958;3.124;2022-07-23T04:32:16;24.60;;;16.42;;
37655;SDS011;23498;50.958;3.124;2022-07-23T04:34:42;24.35;;;16.45;;
37655;SDS011;23498;50.958;3.124;2022-07-23T04:37:08;24.25;;;16.38;;
37655;SDS011;23498;50.958;3.124;2022-07-23T04:39:34;22.80;;;16.30;;
37655;SDS011;23498;50.958;3.124;2022-07-23T04:42:00;21.85;;;16.13;;
37655;SDS011;23498;50.958;3.124;2022-07-23T04:44:26;20.67;;;15.90;;
37655;SDS011;23498;50.958;3.124;2022-07-23T04:46:52;25.45;;;16.23;;
37655;SDS011;23498;50.958;3.124;2022-07-23T04:49:18;20.95;;;15.38;;
37655;SDS011;23498;50.958;3.124;2022-07-23T04:51:44;26.00;;;16.88;;
37655;SDS011;23498;50.958;3.124;2022-07-23T04:54:10;26.10;;;16.50;;
37655;SDS011;23498;50.958;3.124;2022-07-23T04:56:36;26.25;;;17.40;;
37655;SDS011;23498;50.958;3.124;2022-07-23T04:59:02;24.45;;;17.10;;
37655;SDS011;23498;50.958;3.124;2022-07-23T05:01:28;23.75;;;15.88;;
37655;SDS011;23498;50.958;3.124;2022-07-23T05:03:54;26.67;;;17.65;;
37655;SDS011;23498;50.958;3.124;2022-07-23T05:06:20;24.52;;;16.40;;
37655;SDS011;23498;50.958;3.124;2022-07-23T05:08:46;23.60;;;16.38;;
37655;SDS011;23498;50.958;3.124;2022-07-23T05:11:12;24.42;;;16.90;;
37655;SDS011;23498;50.958;3.124;2022-07-23T05:13:38;24.95;;;16.73;;
37655;SDS011;23498;50.958;3.124;2022-07-23T05:16:04;26.83;;;17.20;;
37655;SDS011;23498;50.958;3.124;2022-07-23T05:18:30;23.55;;;17.20;;
37655;SDS011;23498;50.958;3.124;2022-07-23T05:20:56;22.45;;;16.20;;
37655;SDS011;23498;50.958;3.124;2022-07-23T05:23:22;23.80;;;16.90;;
37655;SDS011;23498;50.958;3.124;2022-07-23T05:25:48;21.23;;;16.33;;
37655;SDS011;23498;50.958;3.124;2022-07-23T05:28:15;22.98;;;16.13;;
37655;SDS011;23498;50.958;3.124;2022-07-23T05:30:41;24.02;;;15.98;;
37655;SDS011;23498;50.958;3.124;2022-07-23T05:33:07;24.42;;;18.00;;
37655;SDS011;23498;50.958;3.124;2022-07-23T05:35:33;25.77;;;17.52;;
37655;SDS011;23498;50.958;3.124;2022-07-23T05:37:59;22.73;;;16.45;;
37655;SDS011;23498;50.958;3.124;2022-07-23T05:40:25;20.80;;;15.85;;
37655;SDS011;23498;50.958;3.124;2022-07-23T05:42:51;21.98;;;16.40;;
37655;SDS011;23498;50.958;3.124;2022-07-23T05:45:17;22.88;;;17.33;;
37655;SDS011;23498;50.958;3.124;2022-07-23T05:47:44;22.88;;;17.13;;
37655;SDS011;23498;50.958;3.124;2022-07-23T05:50:11;22.02;;;14.60;;
37655;SDS011;23498;50.958;3.124;2022-07-23T05:52:38;21.27;;;15.88;;
37655;SDS011;23498;50.958;3.124;2022-07-23T05:55:04;21.58;;;15.85;;
37655;SDS011;23498;50.958;3.124;2022-07-23T05:57:30;20.70;;;15.73;;
37655;SDS011;23498;50.958;3.124;2022-07-23T05:59:56;18.13;;;13.75;;
37655;SDS011;23498;50.958;3.124;2022-07-23T06:02:23;20.23;;;14.82;;
37655;SDS011;23498;50.958;3.124;2022-07-23T06:04:49;20.58;;;15.07;;
37655;SDS011;23498;50.958;3.124;2022-07-23T06:07:15;20.70;;;14.13;;
37655;SDS011;23498;50.958;3.124;2022-07-23T06:09:41;21.15;;;14.43;;
37655;SDS011;23498;50.958;3.124;2022-07-23T06:12:07;23.02;;;14.57;;
37655;SDS011;23498;50.958;3.124;2022-07-23T06:14:33;19.92;;;14.20;;
37655;SDS011;23498;50.958;3.124;2022-07-23T06:16:59;20.13;;;14.45;;
37655;SDS011;23498;50.958;3.124;2022-07-23T06:19:25;22.23;;;14.88;;
37655;SDS011;23498;50.958;3.124;2022-07-23T06:21:51;22.30;;;14.23;;
37655;SDS011;23498;50.958;3.124;2022-07-23T06:24:17;20.58;;;13.95;;
37655;SDS011;23498;50.958;3.124;2022-07-23T06:26:43;18.85;;;13.77;;
37655;SDS011;23498;50.958;3.124;2022-07-23T06:29:09;19.27;;;14.20;;
37655;SDS011;23498;50.958;3.124;2022-07-23T06:31:35;20.38;;;14.25;;
37655;SDS011;23498;50.958;3.124;2022-07-23T06:34:01;20.30;;;14.25;;
37655;SDS011;23498;50.958;3.124;2022-07-23T06:36:28;17.55;;;13.43;;
37655;SDS011;23498;50.958;3.124;2022-07-23T06:38:54;26.67;;;13.85;;
37655;SDS011;23498;50.958;3.124;2022-07-23T06:41:20;22.30;;;13.15;;
37655;SDS011;23498;50.958;3.124;2022-07-23T06:43:47;19.33;;;13.50;;
37655;SDS011;23498;50.958;3.124;2022-07-23T06:46:13;17.77;;;11.75;;
37655;SDS011;23498;50.958;3.124;2022-07-23T06:48:39;18.08;;;12.50;;
37655;SDS011;23498;50.958;3.124;2022-07-23T06:51:05;16.83;;;12.63;;
37655;SDS011;23498;50.958;3.124;2022-07-23T06:53:31;16.85;;;11.98;;
37655;SDS011;23498;50.958;3.124;2022-07-23T06:55:57;17.13;;;12.45;;
37655;SDS011;23498;50.958;3.124;2022-07-23T06:58:24;17.00;;;12.30;;
37655;SDS011;23498;50.958;3.124;2022-07-23T07:00:56;17.95;;;12.25;;
37655;SDS011;23498;50.958;3.124;2022-07-23T07:03:22;18.98;;;12.43;;
37655;SDS011;23498;50.958;3.124;2022-07-23T07:05:48;20.75;;;12.25;;
37655;SDS011;23498;50.958;3.124;2022-07-23T07:08:14;17.88;;;11.55;;
37655;SDS011;23498;50.958;3.124;2022-07-23T07:10:40;17.98;;;12.60;;
37655;SDS011;23498;50.958;3.124;2022-07-23T07:13:07;14.95;;;10.52;;
37655;SDS011;23498;50.958;3.124;2022-07-23T07:15:33;16.30;;;11.52;;
37655;SDS011;23498;50.958;3.124;2022-07-23T07:17:59;16.60;;;11.45;;
37655;SDS011;23498;50.958;3.124;2022-07-23T07:20:25;16.27;;;12.30;;
37655;SDS011;23498;50.958;3.124;2022-07-23T07:22:51;15.98;;;10.75;;
37655;SDS011;23498;50.958;3.124;2022-07-23T07:25:17;17.88;;;11.32;;
37655;SDS011;23498;50.958;3.124;2022-07-23T07:27:43;15.43;;;11.88;;
37655;SDS011;23498;50.958;3.124;2022-07-23T07:30:10;15.73;;;11.77;;
37655;SDS011;23498;50.958;3.124;2022-07-23T07:32:36;15.32;;;11.82;;
37655;SDS011;23498;50.958;3.124;2022-07-23T07:35:05;16.08;;;11.63;;
37655;SDS011;23498;50.958;3.124;2022-07-23T07:37:32;15.85;;;11.88;;
37655;SDS011;23498;50.958;3.124;2022-07-23T07:39:58;17.70;;;12.18;;
37655;SDS011;23498;50.958;3.124;2022-07-23T07:42:24;17.52;;;11.38;;
37655;SDS011;23498;50.958;3.124;2022-07-23T07:44:50;18.92;;;12.52;;
37655;SDS011;23498;50.958;3.124;2022-07-23T07:47:16;15.07;;;11.20;;
37655;SDS011;23498;50.958;3.124;2022-07-23T07:49:42;15.05;;;11.13;;
37655;SDS011;23498;50.958;3.124;2022-07-23T07:52:08;16.58;;;11.18;;
37655;SDS011;23498;50.958;3.124;2022-07-23T07:54:35;15.65;;;11.68;;
37655;SDS011;23498;50.958;3.124;2022-07-23T07:57:01;14.55;;;10.93;;
37655;SDS011;23498;50.958;3.124;2022-07-23T07:59:27;17.17;;;11.10;;
37655;SDS011;23498;50.958;3.124;2022-07-23T08:01:53;17.33;;;10.63;;
37655;SDS011;23498;50.958;3.124;2022-07-23T08:04:19;15.00;;;11.38;;
37655;SDS011;23498;50.958;3.124;2022-07-23T08:06:45;17.58;;;11.13;;
37655;SDS011;23498;50.958;3.124;2022-07-23T08:09:11;14.63;;;11.02;;
37655;SDS011;23498;50.958;3.124;2022-07-23T08:11:37;14.07;;;9.52;;
37655;SDS011;23498;50.958;3.124;2022-07-23T08:14:03;13.45;;;9.35;;
37655;SDS011;23498;50.958;3.124;2022-07-23T08:16:29;16.42;;;10.57;;
37655;SDS011;23498;50.958;3.124;2022-07-23T08:18:56;17.38;;;10.05;;
37655;SDS011;23498;50.958;3.124;2022-07-23T08:21:22;16.27;;;10.52;;
37655;SDS011;23498;50.958;3.124;2022-07-23T08:23:48;16.70;;;10.75;;
37655;SDS011;23498;50.958;3.124;2022-07-23T08:26:14;15.68;;;10.02;;
37655;SDS011;23498;50.958;3.124;2022-07-23T08:28:40;13.25;;;9.68;;
37655;SDS011;23498;50.958;3.124;2022-07-23T08:31:06;12.80;;;9.07;;
37655;SDS011;23498;50.958;3.124;2022-07-23T08:33:32;15.50;;;9.73;;
37655;SDS011;23498;50.958;3.124;2022-07-23T08:35:58;16.33;;;9.90;;
37655;SDS011;23498;50.958;3.124;2022-07-23T08:38:24;14.68;;;10.10;;
37655;SDS011;23498;50.958;3.124;2022-07-23T08:40:51;14.25;;;10.27;;
37655;SDS011;23498;50.958;3.124;2022-07-23T08:44:24;15.73;;;10.77;;
37655;SDS011;23498;50.958;3.124;2022-07-23T08:46:50;15.65;;;9.93;;
37655;SDS011;23498;50.958;3.124;2022-07-23T08:49:16;15.40;;;10.30;;
37655;SDS011;23498;50.958;3.124;2022-07-23T08:51:42;17.10;;;10.32;;
37655;SDS011;23498;50.958;3.124;2022-07-23T08:54:08;15.07;;;10.55;;
37655;SDS011;23498;50.958;3.124;2022-07-23T08:56:34;17.50;;;10.82;;
37655;SDS011;23498;50.958;3.124;2022-07-23T08:59:00;16.15;;;10.85;;
37655;SDS011;23498;50.958;3.124;2022-07-23T09:01:26;15.05;;;10.93;;
37655;SDS011;23498;50.958;3.124;2022-07-23T09:03:53;16.10;;;10.98;;
37655;SDS011;23498;50.958;3.124;2022-07-23T09:06:19;15.40;;;11.30;;
37655;SDS011;23498;50.958;3.124;2022-07-23T09:08:45;15.73;;;11.65;;
37655;SDS011;23498;50.958;3.124;2022-07-23T09:11:16;19.20;;;12.23;;
37655;SDS011;23498;50.958;3.124;2022-07-23T09:16:19;14.63;;;10.95;;
37655;SDS011;23498;50.958;3.124;2022-07-23T09:18:46;16.38;;;11.18;;
37655;SDS011;23498;50.958;3.124;2022-07-23T09:26:24;16.15;;;12.13;;
37655;SDS011;23498;50.958;3.124;2022-07-23T09:28:54;16.05;;;10.85;;
37655;SDS011;23498;50.958;3.124;2022-07-23T09:31:21;15.60;;;10.98;;
37655;SDS011;23498;50.958;3.124;2022-07-23T09:33:47;15.13;;;11.90;;
37655;SDS011;23498;50.958;3.124;2022-07-23T09:36:13;14.77;;;10.68;;
37655;SDS011;23498;50.958;3.124;2022-07-23T09:38:49;14.52;;;11.10;;
37655;SDS011;23498;50.958;3.124;2022-07-23T09:41:16;16.10;;;11.68;;
37655;SDS011;23498;50.958;3.124;2022-07-23T09:43:42;14.15;;;11.80;;
37655;SDS011;23498;50.958;3.124;2022-07-23T09:48:47;16.13;;;12.38;;
37655;SDS011;23498;50.958;3.124;2022-07-23T09:51:13;16.42;;;12.50;;
37655;SDS011;23498;50.958;3.124;2022-07-23T09:54:01;15.73;;;10.68;;
37655;SDS011;23498;50.958;3.124;2022-07-23T09:56:27;15.15;;;11.45;;
37655;SDS011;23498;50.958;3.124;2022-07-23T09:58:53;15.45;;;10.95;;
37655;SDS011;23498;50.958;3.124;2022-07-23T10:01:31;14.85;;;10.50;;
37655;SDS011;23498;50.958;3.124;2022-07-23T10:03:58;13.52;;;10.05;;
37655;SDS011;23498;50.958;3.124;2022-07-23T10:06:24;14.27;;;10.55;;
37655;SDS011;23498;50.958;3.124;2022-07-23T10:08:50;12.43;;;10.07;;
37655;SDS011;23498;50.958;3.124;2022-07-23T10:11:16;17.83;;;11.18;;
37655;SDS011;23498;50.958;3.124;2022-07-23T10:13:43;15.27;;;12.02;;
37655;SDS011;23498;50.958;3.124;2022-07-23T10:16:18;12.32;;;8.75;;
37655;SDS011;23498;50.958;3.124;2022-07-23T10:18:45;17.50;;;11.80;;
37655;SDS011;23498;50.958;3.124;2022-07-23T10:21:11;13.43;;;11.25;;
37655;SDS011;23498;50.958;3.124;2022-07-23T10:23:42;11.85;;;9.93;;
37655;SDS011;23498;50.958;3.124;2022-07-23T10:29:01;12.10;;;9.70;;
37655;SDS011;23498;50.958;3.124;2022-07-23T10:31:35;13.85;;;8.75;;
37655;SDS011;23498;50.958;3.124;2022-07-23T10:34:13;13.40;;;8.77;;
37655;SDS011;23498;50.958;3.124;2022-07-23T10:39:14;12.18;;;9.43;;
37655;SDS011;23498;50.958;3.124;2022-07-23T10:41:41;14.43;;;10.85;;
37655;SDS011;23498;50.958;3.124;2022-07-23T10:46:46;13.85;;;11.13;;
37655;SDS011;23498;50.958;3.124;2022-07-23T10:49:34;12.25;;;8.93;;
37655;SDS011;23498;50.958;3.124;2022-07-23T10:54:48;10.75;;;8.90;;
37655;SDS011;23498;50.958;3.124;2022-07-23T11:00:12;12.15;;;9.18;;
37655;SDS011;23498;50.958;3.124;2022-07-23T11:02:40;12.70;;;9.50;;
37655;SDS011;23498;50.958;3.124;2022-07-23T11:05:08;11.75;;;9.57;;
37655;SDS011;23498;50.958;3.124;2022-07-23T11:07:34;14.65;;;10.07;;
37655;SDS011;23498;50.958;3.124;2022-07-23T11:10:01;11.10;;;9.23;;
37655;SDS011;23498;50.958;3.124;2022-07-23T11:17:26;11.23;;;7.47;;
37655;SDS011;23498;50.958;3.124;2022-07-23T11:22:38;10.18;;;7.90;;
37655;SDS011;23498;50.958;3.124;2022-07-23T11:25:05;11.60;;;8.68;;
37655;SDS011;23498;50.958;3.124;2022-07-23T11:27:41;11.77;;;8.95;;
37655;SDS011;23498;50.958;3.124;2022-07-23T11:30:08;10.35;;;8.18;;
37655;SDS011;23498;50.958;3.124;2022-07-23T11:32:35;12.40;;;9.70;;
37655;SDS011;23498;50.958;3.124;2022-07-23T11:35:03;12.00;;;9.90;;
37655;SDS011;23498;50.958;3.124;2022-07-23T11:37:43;11.73;;;8.43;;
37655;SDS011;23498;50.958;3.124;2022-07-23T11:40:11;10.25;;;7.43;;
37655;SDS011;23498;50.958;3.124;2022-07-23T11:42:38;10.70;;;8.23;;
37655;SDS011;23498;50.958;3.124;2022-07-23T11:45:05;9.90;;;7.45;;
37655;SDS011;23498;50.958;3.124;2022-07-23T11:47:32;9.93;;;7.25;;
37655;SDS011;23498;50.958;3.124;2022-07-23T11:49:59;7.93;;;6.03;;
37655;SDS011;23498;50.958;3.124;2022-07-23T11:52:25;9.15;;;7.10;;
37655;SDS011;23498;50.958;3.124;2022-07-23T11:57:18;7.45;;;6.18;;
37655;SDS011;23498;50.958;3.124;2022-07-23T11:59:45;10.98;;;7.28;;
37655;SDS011;23498;50.958;3.124;2022-07-23T12:02:12;11.27;;;7.97;;
37655;SDS011;23498;50.958;3.124;2022-07-23T12:04:43;11.85;;;8.68;;
37655;SDS011;23498;50.958;3.124;2022-07-23T12:07:22;10.47;;;9.17;;
37655;SDS011;23498;50.958;3.124;2022-07-23T12:09:48;10.02;;;8.00;;
37655;SDS011;23498;50.958;3.124;2022-07-23T12:12:14;9.68;;;7.13;;
37655;SDS011;23498;50.958;3.124;2022-07-23T12:14:54;11.73;;;9.35;;
37655;SDS011;23498;50.958;3.124;2022-07-23T12:17:21;9.50;;;8.45;;
37655;SDS011;23498;50.958;3.124;2022-07-23T12:19:47;9.60;;;7.50;;
37655;SDS011;23498;50.958;3.124;2022-07-23T12:22:14;8.20;;;6.93;;
37655;SDS011;23498;50.958;3.124;2022-07-23T12:27:39;9.48;;;7.57;;
37655;SDS011;23498;50.958;3.124;2022-07-23T12:31:05;9.48;;;6.97;;
37655;SDS011;23498;50.958;3.124;2022-07-23T12:33:00;10.60;;;7.55;;
37655;SDS011;23498;50.958;3.124;2022-07-23T12:35:31;11.27;;;9.02;;
37655;SDS011;23498;50.958;3.124;2022-07-23T12:38:00;9.27;;;7.45;;
37655;SDS011;23498;50.958;3.124;2022-07-23T12:40:34;9.45;;;7.35;;
37655;SDS011;23498;50.958;3.124;2022-07-23T12:45:27;10.57;;;7.25;;
37655;SDS011;23498;50.958;3.124;2022-07-23T12:47:56;9.55;;;7.00;;
37655;SDS011;23498;50.958;3.124;2022-07-23T12:55:34;8.65;;;6.50;;
37655;SDS011;23498;50.958;3.124;2022-07-23T12:58:11;6.95;;;6.25;;
37655;SDS011;23498;50.958;3.124;2022-07-23T13:03:29;9.73;;;8.10;;
37655;SDS011;23498;50.958;3.124;2022-07-23T13:05:56;8.82;;;7.07;;
37655;SDS011;23498;50.958;3.124;2022-07-23T13:08:22;9.23;;;7.43;;
37655;SDS011;23498;50.958;3.124;2022-07-23T13:10:48;8.02;;;6.40;;
37655;SDS011;23498;50.958;3.124;2022-07-23T13:13:16;8.10;;;6.53;;
37655;SDS011;23498;50.958;3.124;2022-07-23T13:15:43;8.73;;;6.03;;
37655;SDS011;23498;50.958;3.124;2022-07-23T13:18:09;9.25;;;6.20;;
37655;SDS011;23498;50.958;3.124;2022-07-23T13:20:35;6.90;;;6.07;;
37655;SDS011;23498;50.958;3.124;2022-07-23T13:23:03;8.23;;;5.88;;
37655;SDS011;23498;50.958;3.124;2022-07-23T13:25:29;6.90;;;5.85;;
37655;SDS011;23498;50.958;3.124;2022-07-23T13:27:55;12.43;;;7.53;;
37655;SDS011;23498;50.958;3.124;2022-07-23T13:30:21;9.00;;;6.78;;
37655;SDS011;23498;50.958;3.124;2022-07-23T13:32:48;8.23;;;6.40;;
37655;SDS011;23498;50.958;3.124;2022-07-23T13:35:14;8.13;;;6.35;;
37655;SDS011;23498;50.958;3.124;2022-07-23T13:37:40;7.55;;;6.32;;
37655;SDS011;23498;50.958;3.124;2022-07-23T13:40:06;9.63;;;7.13;;
37655;SDS011;23498;50.958;3.124;2022-07-23T13:42:33;9.40;;;7.20;;
37655;SDS011;23498;50.958;3.124;2022-07-23T13:44:59;10.45;;;7.50;;
37655;SDS011;23498;50.958;3.124;2022-07-23T13:47:25;11.30;;;7.47;;
37655;SDS011;23498;50.958;3.124;2022-07-23T13:49:51;11.57;;;8.32;;
37655;SDS011;23498;50.958;3.124;2022-07-23T13:52:17;13.20;;;8.60;;
37655;SDS011;23498;50.958;3.124;2022-07-23T13:54:43;9.40;;;7.63;;
37655;SDS011;23498;50.958;3.124;2022-07-23T13:57:09;9.48;;;7.35;;
37655;SDS011;23498;50.958;3.124;2022-07-23T13:59:35;7.80;;;6.78;;
37655;SDS011;23498;50.958;3.124;2022-07-23T14:02:02;10.70;;;8.57;;
37655;SDS011;23498;50.958;3.124;2022-07-23T14:04:28;11.32;;;9.65;;
37655;SDS011;23498;50.958;3.124;2022-07-23T14:06:54;11.80;;;7.53;;
37655;SDS011;23498;50.958;3.124;2022-07-23T14:09:20;9.82;;;7.47;;
37655;SDS011;23498;50.958;3.124;2022-07-23T14:11:46;8.98;;;7.00;;
37655;SDS011;23498;50.958;3.124;2022-07-23T14:14:12;9.98;;;8.13;;
37655;SDS011;23498;50.958;3.124;2022-07-23T14:16:38;10.65;;;7.60;;
37655;SDS011;23498;50.958;3.124;2022-07-23T14:19:04;8.95;;;7.38;;
37655;SDS011;23498;50.958;3.124;2022-07-23T14:21:30;9.57;;;6.85;;
37655;SDS011;23498;50.958;3.124;2022-07-23T14:23:56;9.75;;;8.23;;
37655;SDS011;23498;50.958;3.124;2022-07-23T14:26:22;9.60;;;7.18;;
37655;SDS011;23498;50.958;3.124;2022-07-23T14:28:48;9.27;;;6.60;;
37655;SDS011;23498;50.958;3.124;2022-07-23T14:31:14;8.38;;;7.07;;
37655;SDS011;23498;50.958;3.124;2022-07-23T14:33:40;9.60;;;8.27;;
37655;SDS011;23498;50.958;3.124;2022-07-23T14:36:06;7.72;;;6.20;;
37655;SDS011;23498;50.958;3.124;2022-07-23T14:38:32;10.52;;;8.48;;
37655;SDS011;23498;50.958;3.124;2022-07-23T14:40:58;9.45;;;7.32;;
37655;SDS011;23498;50.958;3.124;2022-07-23T14:43:24;9.02;;;6.63;;
37655;SDS011;23498;50.958;3.124;2022-07-23T14:45:50;10.82;;;7.40;;
37655;SDS011;23498;50.958;3.124;2022-07-23T14:48:16;8.27;;;6.80;;
37655;SDS011;23498;50.958;3.124;2022-07-23T14:50:42;11.70;;;8.35;;
37655;SDS011;23498;50.958;3.124;2022-07-23T14:53:08;9.25;;;6.80;;
37655;SDS011;23498;50.958;3.124;2022-07-23T14:55:34;9.93;;;6.43;;
37655;SDS011;23498;50.958;3.124;2022-07-23T14:58:00;9.05;;;7.05;;
37655;SDS011;23498;50.958;3.124;2022-07-23T15:00:26;9.23;;;6.60;;
37655;SDS011;23498;50.958;3.124;2022-07-23T15:02:52;9.15;;;7.07;;
37655;SDS011;23498;50.958;3.124;2022-07-23T15:05:19;8.05;;;6.65;;
37655;SDS011;23498;50.958;3.124;2022-07-23T15:07:45;10.20;;;6.45;;
37655;SDS011;23498;50.958;3.124;2022-07-23T15:10:11;7.65;;;6.05;;
37655;SDS011;23498;50.958;3.124;2022-07-23T15:12:37;7.20;;;6.47;;
37655;SDS011;23498;50.958;3.124;2022-07-23T15:15:03;8.50;;;6.78;;